sensor_id;sensor_type;location;lat;lon;timestamp;P1;durP1;ratioP1;P2;durP2;ratioP2
5955;SDS011;3004;48.080;11.600;2022-07-10T04:38:15;53.00;;;5.50;;
5955;SDS011;3004;48.080;11.600;2022-07-10T04:40:58;52.80;;;5.10;;
5955;SDS011;3004;48.080;11.600;2022-07-10T04:43:26;52.80;;;5.20;;
5955;SDS011;3004;48.080;11.600;2022-07-10T04:46:31;52.77;;;5.10;;
5955;SDS011;3004;48.080;11.600;2022-07-10T04:49:24;52.80;;;5.30;;
5955;SDS011;3004;48.080;11.600;2022-07-10T04:55:31;53.00;;;5.33;;
5955;SDS011;3004;48.080;11.600;2022-07-10T04:58:08;52.60;;;5.30;;
5955;SDS011;3004;48.080;11.600;2022-07-10T05:00:56;52.87;;;5.13;;
5955;SDS011;3004;48.080;11.600;2022-07-10T05:03:50;52.83;;;5.20;;
5955;SDS011;3004;48.080;11.600;2022-07-10T05:16:25;53.17;;;5.63;;
5955;SDS011;3004;48.080;11.600;2022-07-10T05:22:27;53.50;;;5.90;;
5955;SDS011;3004;48.080;11.600;2022-07-10T05:25:13;52.70;;;5.10;;
5955;SDS011;3004;48.080;11.600;2022-07-10T05:28:20;52.77;;;5.10;;
5955;SDS011;3004;48.080;11.600;2022-07-10T05:33:57;52.77;;;5.00;;
5955;SDS011;3004;48.080;11.600;2022-07-10T05:36:38;53.00;;;5.20;;
5955;SDS011;3004;48.080;11.600;2022-07-10T05:39:32;52.90;;;5.07;;
5955;SDS011;3004;48.080;11.600;2022-07-10T05:42:05;52.80;;;5.13;;
5955;SDS011;3004;48.080;11.600;2022-07-10T05:44:52;52.87;;;5.07;;
5955;SDS011;3004;48.080;11.600;2022-07-10T05:57:13;53.10;;;5.50;;
5955;SDS011;3004;48.080;11.600;2022-07-10T05:59:59;53.10;;;5.83;;
5955;SDS011;3004;48.080;11.600;2022-07-10T06:02:52;53.00;;;5.20;;
5955;SDS011;3004;48.080;11.600;2022-07-10T06:05:20;52.80;;;5.10;;
5955;SDS011;3004;48.080;11.600;2022-07-10T06:24:06;52.90;;;5.00;;
5955;SDS011;3004;48.080;11.600;2022-07-10T06:26:39;53.00;;;4.87;;
5955;SDS011;3004;48.080;11.600;2022-07-10T09:54:43;56.10;;;0.93;;
5955;SDS011;3004;48.080;11.600;2022-07-10T10:01:07;55.97;;;0.80;;
5955;SDS011;3004;48.080;11.600;2022-07-10T10:04:26;55.77;;;0.80;;
5955;SDS011;3004;48.080;11.600;2022-07-10T10:07:56;56.10;;;1.00;;
5955;SDS011;3004;48.080;11.600;2022-07-10T10:10:38;55.90;;;0.90;;
5955;SDS011;3004;48.080;11.600;2022-07-10T10:44:05;56.30;;;1.20;;
5955;SDS011;3004;48.080;11.600;2022-07-10T10:47:41;55.77;;;0.80;;
5955;SDS011;3004;48.080;11.600;2022-07-10T10:53:50;55.93;;;0.83;;
5955;SDS011;3004;48.080;11.600;2022-07-10T10:57:15;56.20;;;0.80;;
5955;SDS011;3004;48.080;11.600;2022-07-10T11:00:00;56.27;;;0.87;;
5955;SDS011;3004;48.080;11.600;2022-07-10T11:05:48;56.30;;;1.00;;
5955;SDS011;3004;48.080;11.600;2022-07-10T11:10:18;56.17;;;0.80;;
5955;SDS011;3004;48.080;11.600;2022-07-10T11:32:37;56.17;;;0.73;;
5955;SDS011;3004;48.080;11.600;2022-07-10T11:33:28;56.10;;;0.80;;
5955;SDS011;3004;48.080;11.600;2022-07-10T11:39:27;55.73;;;0.90;;
5955;SDS011;3004;48.080;11.600;2022-07-10T11:41:56;55.87;;;0.70;;
5955;SDS011;3004;48.080;11.600;2022-07-10T11:47:11;56.07;;;0.80;;
5955;SDS011;3004;48.080;11.600;2022-07-10T11:49:45;56.27;;;0.80;;
5955;SDS011;3004;48.080;11.600;2022-07-10T11:52:15;56.07;;;0.90;;
5955;SDS011;3004;48.080;11.600;2022-07-10T11:54:44;56.07;;;0.80;;
5955;SDS011;3004;48.080;11.600;2022-07-10T11:57:14;56.37;;;0.80;;
5955;SDS011;3004;48.080;11.600;2022-07-10T11:59:46;56.27;;;0.80;;
5955;SDS011;3004;48.080;11.600;2022-07-10T12:02:21;56.30;;;0.80;;
5955;SDS011;3004;48.080;11.600;2022-07-10T12:04:50;56.60;;;1.20;;
5955;SDS011;3004;48.080;11.600;2022-07-10T12:07:20;56.30;;;0.80;;
5955;SDS011;3004;48.080;11.600;2022-07-10T12:09:52;56.40;;;0.70;;
5955;SDS011;3004;48.080;11.600;2022-07-10T12:12:24;56.90;;;1.80;;
5955;SDS011;3004;48.080;11.600;2022-07-10T12:15:31;56.40;;;0.90;;
5955;SDS011;3004;48.080;11.600;2022-07-10T12:18:08;56.07;;;1.00;;
5955;SDS011;3004;48.080;11.600;2022-07-10T12:20:45;56.07;;;0.73;;
5955;SDS011;3004;48.080;11.600;2022-07-10T12:23:23;56.20;;;0.80;;
5955;SDS011;3004;48.080;11.600;2022-07-10T12:25:57;56.20;;;1.00;;
5955;SDS011;3004;48.080;11.600;2022-07-10T12:28:24;56.10;;;0.73;;
5955;SDS011;3004;48.080;11.600;2022-07-10T12:31:02;56.47;;;0.87;;
5955;SDS011;3004;48.080;11.600;2022-07-10T12:33:31;56.03;;;0.70;;
5955;SDS011;3004;48.080;11.600;2022-07-10T12:35:58;55.97;;;0.87;;
5955;SDS011;3004;48.080;11.600;2022-07-10T12:38:25;56.20;;;0.80;;
5955;SDS011;3004;48.080;11.600;2022-07-10T12:41:06;56.10;;;0.70;;
5955;SDS011;3004;48.080;11.600;2022-07-10T12:43:33;56.07;;;0.87;;
5955;SDS011;3004;48.080;11.600;2022-07-10T12:46:14;56.13;;;0.83;;
5955;SDS011;3004;48.080;11.600;2022-07-10T12:51:29;56.40;;;0.80;;
5955;SDS011;3004;48.080;11.600;2022-07-10T12:54:00;56.13;;;0.80;;
5955;SDS011;3004;48.080;11.600;2022-07-10T12:56:31;56.40;;;0.90;;
5955;SDS011;3004;48.080;11.600;2022-07-10T12:59:11;56.30;;;0.80;;
5955;SDS011;3004;48.080;11.600;2022-07-10T13:01:41;56.97;;;1.73;;
5955;SDS011;3004;48.080;11.600;2022-07-10T13:04:11;56.10;;;0.70;;
5955;SDS011;3004;48.080;11.600;2022-07-10T13:06:40;56.13;;;0.80;;
5955;SDS011;3004;48.080;11.600;2022-07-10T13:09:17;55.97;;;0.80;;
5955;SDS011;3004;48.080;11.600;2022-07-10T13:11:45;56.20;;;0.80;;
5955;SDS011;3004;48.080;11.600;2022-07-10T13:14:21;55.80;;;0.87;;
5955;SDS011;3004;48.080;11.600;2022-07-10T13:16:49;56.27;;;0.80;;
5955;SDS011;3004;48.080;11.600;2022-07-10T13:19:22;56.13;;;0.77;;
5955;SDS011;3004;48.080;11.600;2022-07-10T13:21:54;56.27;;;0.70;;
5955;SDS011;3004;48.080;11.600;2022-07-10T13:24:21;56.10;;;0.80;;
5955;SDS011;3004;48.080;11.600;2022-07-10T13:26:48;56.27;;;0.80;;
5955;SDS011;3004;48.080;11.600;2022-07-10T13:29:21;55.77;;;0.80;;
5955;SDS011;3004;48.080;11.600;2022-07-10T13:31:52;56.20;;;0.80;;
5955;SDS011;3004;48.080;11.600;2022-07-10T13:34:19;56.10;;;0.80;;
5955;SDS011;3004;48.080;11.600;2022-07-10T13:36:46;56.07;;;0.80;;
5955;SDS011;3004;48.080;11.600;2022-07-10T13:39:15;56.07;;;0.77;;
5955;SDS011;3004;48.080;11.600;2022-07-10T13:41:42;56.27;;;0.80;;
5955;SDS011;3004;48.080;11.600;2022-07-10T13:44:09;56.60;;;1.10;;
5955;SDS011;3004;48.080;11.600;2022-07-10T13:46:38;56.00;;;0.90;;
5955;SDS011;3004;48.080;11.600;2022-07-10T13:49:07;56.30;;;1.00;;
5955;SDS011;3004;48.080;11.600;2022-07-10T13:51:34;56.37;;;0.80;;
5955;SDS011;3004;48.080;11.600;2022-07-10T13:54:05;56.23;;;0.80;;
5955;SDS011;3004;48.080;11.600;2022-07-10T13:56:41;56.30;;;0.70;;
5955;SDS011;3004;48.080;11.600;2022-07-10T13:59:12;56.53;;;1.07;;
5955;SDS011;3004;48.080;11.600;2022-07-10T14:01:41;56.37;;;0.70;;
5955;SDS011;3004;48.080;11.600;2022-07-10T14:04:09;56.33;;;0.80;;
5955;SDS011;3004;48.080;11.600;2022-07-10T14:06:36;55.87;;;0.70;;
5955;SDS011;3004;48.080;11.600;2022-07-10T14:09:03;56.30;;;1.07;;
5955;SDS011;3004;48.080;11.600;2022-07-10T14:11:33;56.17;;;0.80;;
5955;SDS011;3004;48.080;11.600;2022-07-10T14:14:02;56.30;;;0.80;;
5955;SDS011;3004;48.080;11.600;2022-07-10T14:16:29;58.30;;;2.07;;
5955;SDS011;3004;48.080;11.600;2022-07-10T14:18:56;56.17;;;0.80;;
5955;SDS011;3004;48.080;11.600;2022-07-10T14:21:24;56.30;;;0.73;;
5955;SDS011;3004;48.080;11.600;2022-07-10T14:23:52;56.27;;;0.80;;
5955;SDS011;3004;48.080;11.600;2022-07-10T14:26:29;56.30;;;0.80;;
5955;SDS011;3004;48.080;11.600;2022-07-10T14:28:56;56.50;;;0.90;;
5955;SDS011;3004;48.080;11.600;2022-07-10T14:31:23;56.33;;;0.70;;
5955;SDS011;3004;48.080;11.600;2022-07-10T14:33:50;56.50;;;0.80;;
5955;SDS011;3004;48.080;11.600;2022-07-10T14:36:17;56.17;;;0.70;;
5955;SDS011;3004;48.080;11.600;2022-07-10T14:38:47;56.20;;;0.80;;
5955;SDS011;3004;48.080;11.600;2022-07-10T14:41:15;56.30;;;0.80;;
5955;SDS011;3004;48.080;11.600;2022-07-10T14:43:42;56.17;;;0.80;;
5955;SDS011;3004;48.080;11.600;2022-07-10T14:46:12;56.37;;;0.70;;
5955;SDS011;3004;48.080;11.600;2022-07-10T14:48:45;56.20;;;0.80;;
5955;SDS011;3004;48.080;11.600;2022-07-10T14:51:12;56.50;;;1.17;;
5955;SDS011;3004;48.080;11.600;2022-07-10T14:53:40;56.40;;;0.80;;
5955;SDS011;3004;48.080;11.600;2022-07-10T14:56:11;56.27;;;0.70;;
5955;SDS011;3004;48.080;11.600;2022-07-10T14:58:41;55.97;;;0.80;;
5955;SDS011;3004;48.080;11.600;2022-07-10T15:01:08;56.47;;;1.00;;
5955;SDS011;3004;48.080;11.600;2022-07-10T15:03:40;56.40;;;0.80;;
5955;SDS011;3004;48.080;11.600;2022-07-10T15:06:17;56.27;;;0.80;;
5955;SDS011;3004;48.080;11.600;2022-07-10T15:08:43;56.27;;;0.90;;
5955;SDS011;3004;48.080;11.600;2022-07-10T15:11:12;56.40;;;0.70;;
5955;SDS011;3004;48.080;11.600;2022-07-10T15:13:39;56.20;;;0.70;;
5955;SDS011;3004;48.080;11.600;2022-07-10T15:16:06;56.30;;;0.83;;
5955;SDS011;3004;48.080;11.600;2022-07-10T15:18:41;56.57;;;0.90;;
5955;SDS011;3004;48.080;11.600;2022-07-10T15:21:08;56.47;;;0.80;;
5955;SDS011;3004;48.080;11.600;2022-07-10T15:23:36;56.43;;;0.70;;
5955;SDS011;3004;48.080;11.600;2022-07-10T15:26:05;66.40;;;1.20;;
5955;SDS011;3004;48.080;11.600;2022-07-10T15:28:37;65.20;;;1.00;;
5955;SDS011;3004;48.080;11.600;2022-07-10T15:31:13;63.27;;;1.10;;
5955;SDS011;3004;48.080;11.600;2022-07-10T15:33:40;62.47;;;1.00;;
5955;SDS011;3004;48.080;11.600;2022-07-10T15:36:12;61.50;;;1.00;;
5955;SDS011;3004;48.080;11.600;2022-07-10T15:38:40;69.63;;;5.50;;
5955;SDS011;3004;48.080;11.600;2022-07-10T15:41:07;61.67;;;1.00;;
5955;SDS011;3004;48.080;11.600;2022-07-10T15:43:36;414.23;;;75.40;;
5955;SDS011;3004;48.080;11.600;2022-07-10T15:46:04;64.93;;;1.30;;
5955;SDS011;3004;48.080;11.600;2022-07-10T15:48:32;64.37;;;1.10;;
5955;SDS011;3004;48.080;11.600;2022-07-10T15:51:03;57.13;;;0.70;;
5955;SDS011;3004;48.080;11.600;2022-07-10T15:53:32;57.43;;;0.80;;
5955;SDS011;3004;48.080;11.600;2022-07-10T15:56:03;56.37;;;0.80;;
5955;SDS011;3004;48.080;11.600;2022-07-10T15:58:31;56.30;;;0.80;;
5955;SDS011;3004;48.080;11.600;2022-07-10T16:01:00;56.30;;;0.80;;
5955;SDS011;3004;48.080;11.600;2022-07-10T16:03:26;56.67;;;0.97;;
5955;SDS011;3004;48.080;11.600;2022-07-10T16:05:53;56.20;;;0.80;;
5955;SDS011;3004;48.080;11.600;2022-07-10T16:08:21;56.37;;;0.80;;
5955;SDS011;3004;48.080;11.600;2022-07-10T16:10:50;101.17;;;2.30;;
5955;SDS011;3004;48.080;11.600;2022-07-10T16:13:17;312.17;;;84.43;;
5955;SDS011;3004;48.080;11.600;2022-07-10T16:15:44;64.77;;;1.20;;
5955;SDS011;3004;48.080;11.600;2022-07-10T16:18:13;63.50;;;0.90;;
5955;SDS011;3004;48.080;11.600;2022-07-10T16:20:40;64.07;;;0.90;;
5955;SDS011;3004;48.080;11.600;2022-07-10T16:23:08;63.97;;;1.00;;
5955;SDS011;3004;48.080;11.600;2022-07-10T16:25:35;64.17;;;0.93;;
5955;SDS011;3004;48.080;11.600;2022-07-10T16:28:19;64.80;;;1.00;;
5955;SDS011;3004;48.080;11.600;2022-07-10T16:30:53;65.33;;;1.10;;
5955;SDS011;3004;48.080;11.600;2022-07-10T16:33:25;56.20;;;0.70;;
5955;SDS011;3004;48.080;11.600;2022-07-10T16:35:58;71.33;;;3.43;;
5955;SDS011;3004;48.080;11.600;2022-07-10T16:38:25;87.13;;;20.83;;
5955;SDS011;3004;48.080;11.600;2022-07-10T16:40:52;56.57;;;1.60;;
5955;SDS011;3004;48.080;11.600;2022-07-10T16:43:22;104.57;;;31.53;;
5955;SDS011;3004;48.080;11.600;2022-07-10T16:45:50;57.30;;;2.57;;
5955;SDS011;3004;48.080;11.600;2022-07-10T16:48:17;58.27;;;1.10;;
5955;SDS011;3004;48.080;11.600;2022-07-10T16:50:45;55.87;;;0.80;;
5955;SDS011;3004;48.080;11.600;2022-07-10T16:53:12;56.27;;;0.70;;
5955;SDS011;3004;48.080;11.600;2022-07-10T16:55:39;56.30;;;0.80;;
5955;SDS011;3004;48.080;11.600;2022-07-10T16:58:06;56.40;;;0.70;;
5955;SDS011;3004;48.080;11.600;2022-07-10T17:00:33;56.30;;;0.77;;
5955;SDS011;3004;48.080;11.600;2022-07-10T17:03:00;56.47;;;0.90;;
5955;SDS011;3004;48.080;11.600;2022-07-10T17:05:30;55.93;;;0.70;;
5955;SDS011;3004;48.080;11.600;2022-07-10T17:08:10;56.13;;;0.70;;
5955;SDS011;3004;48.080;11.600;2022-07-10T17:10:38;55.67;;;0.70;;
5955;SDS011;3004;48.080;11.600;2022-07-10T17:13:05;56.30;;;0.80;;
5955;SDS011;3004;48.080;11.600;2022-07-10T17:15:33;66.40;;;1.00;;
5955;SDS011;3004;48.080;11.600;2022-07-10T17:18:00;55.97;;;0.70;;
5955;SDS011;3004;48.080;11.600;2022-07-10T17:20:30;56.30;;;0.70;;
5955;SDS011;3004;48.080;11.600;2022-07-10T17:22:57;56.20;;;0.70;;
5955;SDS011;3004;48.080;11.600;2022-07-10T17:25:25;56.37;;;0.80;;
5955;SDS011;3004;48.080;11.600;2022-07-10T17:27:53;56.40;;;0.70;;
5955;SDS011;3004;48.080;11.600;2022-07-10T17:30:22;56.90;;;2.20;;
5955;SDS011;3004;48.080;11.600;2022-07-10T17:32:49;56.27;;;0.77;;
5955;SDS011;3004;48.080;11.600;2022-07-10T17:35:16;56.47;;;0.80;;
5955;SDS011;3004;48.080;11.600;2022-07-10T17:37:46;56.20;;;0.73;;
5955;SDS011;3004;48.080;11.600;2022-07-10T17:40:13;55.97;;;0.70;;
5955;SDS011;3004;48.080;11.600;2022-07-10T17:42:42;56.47;;;0.70;;
5955;SDS011;3004;48.080;11.600;2022-07-10T17:45:09;55.90;;;0.70;;
5955;SDS011;3004;48.080;11.600;2022-07-10T17:47:36;225.77;;;8.57;;
5955;SDS011;3004;48.080;11.600;2022-07-10T17:50:03;56.00;;;0.70;;
5955;SDS011;3004;48.080;11.600;2022-07-10T17:52:32;56.10;;;0.80;;
5955;SDS011;3004;48.080;11.600;2022-07-10T17:55:01;56.07;;;0.70;;
5955;SDS011;3004;48.080;11.600;2022-07-10T17:57:29;56.27;;;0.70;;
5955;SDS011;3004;48.080;11.600;2022-07-10T17:59:57;56.10;;;0.70;;
5955;SDS011;3004;48.080;11.600;2022-07-10T18:02:24;56.17;;;0.70;;
5955;SDS011;3004;48.080;11.600;2022-07-10T18:04:51;56.40;;;0.70;;
5955;SDS011;3004;48.080;11.600;2022-07-10T18:07:18;56.07;;;0.70;;
5955;SDS011;3004;48.080;11.600;2022-07-10T18:09:45;56.30;;;0.70;;
5955;SDS011;3004;48.080;11.600;2022-07-10T18:12:11;56.27;;;0.80;;
5955;SDS011;3004;48.080;11.600;2022-07-10T18:14:38;56.13;;;0.70;;
5955;SDS011;3004;48.080;11.600;2022-07-10T18:17:08;56.33;;;1.03;;
5955;SDS011;3004;48.080;11.600;2022-07-10T18:19:35;65.20;;;1.00;;
5955;SDS011;3004;48.080;11.600;2022-07-10T18:22:02;55.90;;;0.70;;
5955;SDS011;3004;48.080;11.600;2022-07-10T18:24:29;56.40;;;0.70;;
5955;SDS011;3004;48.080;11.600;2022-07-10T18:26:56;55.67;;;0.77;;
5955;SDS011;3004;48.080;11.600;2022-07-10T18:29:23;56.07;;;0.70;;
5955;SDS011;3004;48.080;11.600;2022-07-10T18:31:50;56.27;;;0.70;;
5955;SDS011;3004;48.080;11.600;2022-07-10T18:34:19;56.00;;;0.70;;
5955;SDS011;3004;48.080;11.600;2022-07-10T18:36:55;70.20;;;4.50;;
5955;SDS011;3004;48.080;11.600;2022-07-10T18:39:23;56.27;;;0.87;;
5955;SDS011;3004;48.080;11.600;2022-07-10T18:41:50;56.17;;;0.70;;
5955;SDS011;3004;48.080;11.600;2022-07-10T18:44:17;56.40;;;0.70;;
5955;SDS011;3004;48.080;11.600;2022-07-10T18:46:45;55.97;;;0.80;;
5955;SDS011;3004;48.080;11.600;2022-07-10T18:49:14;55.97;;;0.70;;
5955;SDS011;3004;48.080;11.600;2022-07-10T18:51:43;56.40;;;0.80;;
5955;SDS011;3004;48.080;11.600;2022-07-10T18:54:10;55.87;;;0.80;;
5955;SDS011;3004;48.080;11.600;2022-07-10T18:56:37;55.93;;;0.70;;
5955;SDS011;3004;48.080;11.600;2022-07-10T18:59:04;56.70;;;1.30;;
5955;SDS011;3004;48.080;11.600;2022-07-10T19:04:18;56.30;;;0.70;;
5955;SDS011;3004;48.080;11.600;2022-07-10T19:06:47;56.30;;;0.73;;
5955;SDS011;3004;48.080;11.600;2022-07-10T19:09:13;56.00;;;0.80;;
5955;SDS011;3004;48.080;11.600;2022-07-10T19:11:40;56.30;;;0.80;;
5955;SDS011;3004;48.080;11.600;2022-07-10T19:14:07;56.00;;;0.70;;
5955;SDS011;3004;48.080;11.600;2022-07-10T19:16:35;56.20;;;0.80;;
5955;SDS011;3004;48.080;11.600;2022-07-10T19:19:01;56.10;;;0.70;;
5955;SDS011;3004;48.080;11.600;2022-07-10T19:21:28;56.07;;;0.70;;
5955;SDS011;3004;48.080;11.600;2022-07-10T19:23:57;56.40;;;1.63;;
5955;SDS011;3004;48.080;11.600;2022-07-10T19:26:24;55.97;;;0.70;;
5955;SDS011;3004;48.080;11.600;2022-07-10T19:28:52;56.20;;;0.70;;
5955;SDS011;3004;48.080;11.600;2022-07-10T19:31:19;63.77;;;1.10;;
5955;SDS011;3004;48.080;11.600;2022-07-10T19:33:45;132.60;;;74.57;;
5955;SDS011;3004;48.080;11.600;2022-07-10T19:36:13;56.10;;;0.60;;
5955;SDS011;3004;48.080;11.600;2022-07-10T19:38:40;55.73;;;0.70;;
5955;SDS011;3004;48.080;11.600;2022-07-10T19:41:09;56.27;;;0.70;;
5955;SDS011;3004;48.080;11.600;2022-07-10T19:43:37;56.20;;;0.70;;
5955;SDS011;3004;48.080;11.600;2022-07-10T19:46:07;56.20;;;0.60;;
5955;SDS011;3004;48.080;11.600;2022-07-10T19:48:34;55.90;;;0.70;;
5955;SDS011;3004;48.080;11.600;2022-07-10T19:51:03;56.20;;;0.80;;
5955;SDS011;3004;48.080;11.600;2022-07-10T19:53:32;55.93;;;0.70;;
5955;SDS011;3004;48.080;11.600;2022-07-10T19:55:59;56.40;;;0.70;;
5955;SDS011;3004;48.080;11.600;2022-07-10T19:58:27;56.20;;;0.70;;
5955;SDS011;3004;48.080;11.600;2022-07-10T20:00:56;56.30;;;0.70;;
5955;SDS011;3004;48.080;11.600;2022-07-10T20:06:40;56.40;;;0.90;;
5955;SDS011;3004;48.080;11.600;2022-07-10T20:09:38;56.10;;;0.70;;
5955;SDS011;3004;48.080;11.600;2022-07-10T20:12:59;55.90;;;0.70;;
5955;SDS011;3004;48.080;11.600;2022-07-10T20:15:30;56.20;;;0.70;;
5955;SDS011;3004;48.080;11.600;2022-07-10T20:17:59;55.90;;;0.70;;
5955;SDS011;3004;48.080;11.600;2022-07-10T20:20:44;56.10;;;0.80;;
5955;SDS011;3004;48.080;11.600;2022-07-10T20:23:23;55.90;;;0.70;;
5955;SDS011;3004;48.080;11.600;2022-07-10T20:25:53;56.10;;;0.70;;
5955;SDS011;3004;48.080;11.600;2022-07-10T20:28:29;56.17;;;0.70;;
5955;SDS011;3004;48.080;11.600;2022-07-10T20:31:07;56.20;;;0.70;;
5955;SDS011;3004;48.080;11.600;2022-07-10T20:33:35;56.30;;;1.00;;
5955;SDS011;3004;48.080;11.600;2022-07-10T20:36:04;56.07;;;0.70;;
5955;SDS011;3004;48.080;11.600;2022-07-10T20:38:49;56.00;;;0.70;;
5955;SDS011;3004;48.080;11.600;2022-07-10T20:41:19;56.00;;;0.70;;
5955;SDS011;3004;48.080;11.600;2022-07-10T20:44:10;83.23;;;1.43;;
5955;SDS011;3004;48.080;11.600;2022-07-10T20:46:47;56.00;;;0.80;;
5955;SDS011;3004;48.080;11.600;2022-07-10T20:49:19;56.00;;;0.70;;
5955;SDS011;3004;48.080;11.600;2022-07-10T20:51:57;56.00;;;0.80;;
5955;SDS011;3004;48.080;11.600;2022-07-10T20:54:26;56.10;;;0.80;;
5955;SDS011;3004;48.080;11.600;2022-07-10T20:56:55;55.67;;;0.70;;
5955;SDS011;3004;48.080;11.600;2022-07-10T20:59:23;342.70;;;82.30;;
5955;SDS011;3004;48.080;11.600;2022-07-10T21:01:52;338.87;;;150.03;;
5955;SDS011;3004;48.080;11.600;2022-07-10T21:04:22;100.70;;;49.30;;
5955;SDS011;3004;48.080;11.600;2022-07-10T21:07:01;121.03;;;78.80;;
5955;SDS011;3004;48.080;11.600;2022-07-10T21:09:36;169.27;;;112.40;;
5955;SDS011;3004;48.080;11.600;2022-07-10T21:12:22;104.70;;;23.17;;
5955;SDS011;3004;48.080;11.600;2022-07-10T21:21:09;126.43;;;60.90;;
5955;SDS011;3004;48.080;11.600;2022-07-10T21:23:51;118.83;;;57.17;;
5955;SDS011;3004;48.080;11.600;2022-07-10T21:26:46;102.83;;;31.77;;
5955;SDS011;3004;48.080;11.600;2022-07-10T21:29:28;112.07;;;23.90;;
5955;SDS011;3004;48.080;11.600;2022-07-10T21:32:35;226.57;;;117.37;;
5955;SDS011;3004;48.080;11.600;2022-07-10T21:35:05;302.50;;;274.87;;
5955;SDS011;3004;48.080;11.600;2022-07-10T21:37:54;332.50;;;165.37;;
5955;SDS011;3004;48.080;11.600;2022-07-10T21:40:26;159.03;;;105.60;;
5955;SDS011;3004;48.080;11.600;2022-07-10T21:43:01;86.77;;;14.20;;
5955;SDS011;3004;48.080;11.600;2022-07-10T21:45:35;90.63;;;19.50;;
5955;SDS011;3004;48.080;11.600;2022-07-10T21:48:08;76.10;;;5.83;;
5955;SDS011;3004;48.080;11.600;2022-07-10T21:50:35;76.90;;;7.73;;
5955;SDS011;3004;48.080;11.600;2022-07-10T21:56:25;78.53;;;3.10;;
5955;SDS011;3004;48.080;11.600;2022-07-10T21:58:58;77.70;;;10.13;;
5955;SDS011;3004;48.080;11.600;2022-07-10T22:01:32;87.40;;;10.50;;
5955;SDS011;3004;48.080;11.600;2022-07-10T22:04:06;86.23;;;16.97;;
5955;SDS011;3004;48.080;11.600;2022-07-10T22:06:45;188.80;;;94.07;;
5955;SDS011;3004;48.080;11.600;2022-07-10T22:09:16;111.47;;;60.13;;
5955;SDS011;3004;48.080;11.600;2022-07-10T22:11:44;264.90;;;239.77;;
5955;SDS011;3004;48.080;11.600;2022-07-10T22:14:18;112.97;;;40.47;;
5955;SDS011;3004;48.080;11.600;2022-07-10T22:16:50;98.43;;;22.13;;
5955;SDS011;3004;48.080;11.600;2022-07-10T22:19:19;112.47;;;18.33;;
5955;SDS011;3004;48.080;11.600;2022-07-10T22:21:46;129.03;;;46.87;;
5955;SDS011;3004;48.080;11.600;2022-07-10T22:24:13;130.47;;;46.80;;
5955;SDS011;3004;48.080;11.600;2022-07-10T22:26:41;141.40;;;48.13;;
5955;SDS011;3004;48.080;11.600;2022-07-10T22:29:10;137.53;;;49.37;;
5955;SDS011;3004;48.080;11.600;2022-07-10T22:31:37;160.33;;;56.07;;
5955;SDS011;3004;48.080;11.600;2022-07-10T22:34:04;208.00;;;143.47;;
5955;SDS011;3004;48.080;11.600;2022-07-10T22:36:32;203.70;;;129.00;;
5955;SDS011;3004;48.080;11.600;2022-07-10T22:38:59;162.43;;;94.37;;
5955;SDS011;3004;48.080;11.600;2022-07-10T22:41:27;124.33;;;35.33;;
5955;SDS011;3004;48.080;11.600;2022-07-10T22:43:56;190.50;;;78.67;;
5955;SDS011;3004;48.080;11.600;2022-07-10T22:46:23;181.03;;;75.63;;
5955;SDS011;3004;48.080;11.600;2022-07-10T22:48:50;56.07;;;2.27;;
5955;SDS011;3004;48.080;11.600;2022-07-10T22:51:17;55.40;;;1.60;;
5955;SDS011;3004;48.080;11.600;2022-07-10T22:53:45;55.57;;;1.50;;
5955;SDS011;3004;48.080;11.600;2022-07-10T22:56:42;61.23;;;1.80;;
5955;SDS011;3004;48.080;11.600;2022-07-10T23:03:03;55.00;;;1.53;;
5955;SDS011;3004;48.080;11.600;2022-07-10T23:08:46;55.30;;;1.60;;
5955;SDS011;3004;48.080;11.600;2022-07-10T23:11:19;55.37;;;1.60;;
5955;SDS011;3004;48.080;11.600;2022-07-10T23:13:50;55.37;;;1.60;;
5955;SDS011;3004;48.080;11.600;2022-07-10T23:16:19;55.27;;;1.60;;
5955;SDS011;3004;48.080;11.600;2022-07-10T23:18:46;55.37;;;1.67;;
5955;SDS011;3004;48.080;11.600;2022-07-10T23:21:13;55.07;;;1.60;;
5955;SDS011;3004;48.080;11.600;2022-07-10T23:23:41;55.20;;;1.60;;
5955;SDS011;3004;48.080;11.600;2022-07-10T23:26:08;55.20;;;1.60;;
5955;SDS011;3004;48.080;11.600;2022-07-10T23:28:35;55.10;;;1.60;;
5955;SDS011;3004;48.080;11.600;2022-07-10T23:31:03;55.20;;;1.70;;
5955;SDS011;3004;48.080;11.600;2022-07-10T23:33:32;55.20;;;1.60;;
5955;SDS011;3004;48.080;11.600;2022-07-10T23:36:00;55.07;;;1.70;;
5955;SDS011;3004;48.080;11.600;2022-07-10T23:38:32;55.03;;;1.70;;
5955;SDS011;3004;48.080;11.600;2022-07-10T23:40:59;55.30;;;1.70;;
5955;SDS011;3004;48.080;11.600;2022-07-10T23:43:28;55.47;;;2.43;;
5955;SDS011;3004;48.080;11.600;2022-07-10T23:45:58;55.00;;;1.70;;
5955;SDS011;3004;48.080;11.600;2022-07-10T23:48:26;55.10;;;1.70;;
5955;SDS011;3004;48.080;11.600;2022-07-10T23:51:12;55.10;;;1.70;;
5955;SDS011;3004;48.080;11.600;2022-07-10T23:53:39;55.00;;;1.73;;
5955;SDS011;3004;48.080;11.600;2022-07-10T23:56:06;55.00;;;1.80;;
5955;SDS011;3004;48.080;11.600;2022-07-10T23:58:33;54.90;;;1.70;;
